Back to Top

Language: 

My Weather Underground Personal Weather Station Historical Data with Graphs...

Delerius Weather Station Historical Data
Daily Summary for November 20, 2017 Units:  English    Metric   Both
« Previous Day
Next Day »
Daily Weekly Monthly Yearly Custom
  High: Low: Average:
Temperature: 57.4 °F 42.6 °F 51.4 °F
Dew Point: 52.9 °F 38.1 °F 48.7 °F
Humidity: 95 % 82 % 90 %
Wind Speed: 20.0 mph 1.0 mph 7.3 mph
Wind Gust: 27.0 mph - -
Wind:- - WSW
Pressure: 30.05 in 29.76 in -
Precipitation: 0.02 in    
Historical Graphs
 
 
Tabular Data for November 20, 2017
Time Temperature Dew Point Pressure Wind Wind Speed Wind Gust Humidity Rainfall Rate (Hourly) solar Conditions
00:04 42.6 °F 38.1 °F 30.05 in East 2.0 mph 5.0 mph 84 % 0.00 in 0 W/m2
00:09 42.6 °F 38.1 °F 30.05 in East 2.0 mph 4.0 mph 84 % 0.00 in 0 W/m2
00:19 43.0 °F 38.8 °F 30.04 in ESE 4.0 mph 7.0 mph 85 % 0.00 in 0 W/m2
00:29 43.2 °F 39.0 °F 30.04 in ESE 2.0 mph 5.0 mph 85 % 0.00 in 0 W/m2
00:34 43.2 °F 39.3 °F 30.04 in SSE 2.0 mph 4.0 mph 86 % 0.00 in 0 W/m2
00:39 43.2 °F 39.3 °F 30.04 in SSW 4.0 mph 7.0 mph 86 % 0.00 in 0 W/m2
00:44 43.5 °F 39.9 °F 30.03 in SW 7.0 mph 10.0 mph 87 % 0.00 in 0 W/m2
00:49 43.9 °F 40.6 °F 30.03 in SSW 7.0 mph 11.0 mph 88 % 0.00 in 0 W/m2
01:04 44.4 °F 41.1 °F 30.02 in South 4.0 mph 9.0 mph 88 % 0.00 in 0 W/m2
01:09 44.4 °F 41.1 °F 30.02 in South 4.0 mph 8.0 mph 88 % 0.00 in 0 W/m2
01:15 44.4 °F 41.1 °F 30.02 in South 3.0 mph 6.0 mph 88 % 0.00 in 0 W/m2
01:20 44.4 °F 41.4 °F 30.02 in SSE 3.0 mph 6.0 mph 89 % 0.00 in 0 W/m2
01:25 44.4 °F 41.4 °F 30.01 in SSE 2.0 mph 5.0 mph 89 % 0.00 in 0 W/m2
01:30 44.6 °F 41.8 °F 30.01 in SSW 5.0 mph 10.0 mph 90 % 0.01 in 0 W/m2
01:41 45.1 °F 42.7 °F 30.00 in SSW 7.0 mph 11.0 mph 91 % 0.01 in 0 W/m2
01:46 45.3 °F 42.8 °F 30.00 in SW 10.0 mph 14.0 mph 91 % 0.01 in 0 W/m2
01:51 45.7 °F 43.2 °F 29.99 in SW 8.0 mph 14.0 mph 91 % 0.01 in 0 W/m2
02:01 45.9 °F 43.4 °F 29.99 in SW 10.0 mph 16.0 mph 91 % 0.01 in 0 W/m2
02:06 46.0 °F 43.6 °F 29.99 in SW 10.0 mph 13.0 mph 91 % 0.01 in 0 W/m2
02:11 46.0 °F 43.6 °F 29.99 in SW 10.0 mph 15.0 mph 91 % 0.01 in 0 W/m2
02:16 46.0 °F 43.6 °F 29.98 in SW 8.0 mph 13.0 mph 91 % 0.01 in 0 W/m2
02:21 46.0 °F 43.8 °F 29.98 in SW 10.0 mph 14.0 mph 92 % 0.01 in 0 W/m2
02:26 46.0 °F 43.8 °F 29.97 in SW 8.0 mph 10.0 mph 92 % 0.01 in 0 W/m2
02:36 46.0 °F 43.8 °F 29.96 in SSW 6.0 mph 9.0 mph 92 % 0.01 in 0 W/m2
02:41 46.0 °F 43.8 °F 29.96 in SSW 9.0 mph 13.0 mph 92 % 0.01 in 0 W/m2
02:46 46.0 °F 43.8 °F 29.95 in SSW 7.0 mph 12.0 mph 92 % 0.01 in 0 W/m2
02:56 45.9 °F 43.7 °F 29.95 in SW 8.0 mph 13.0 mph 92 % 0.01 in 0 W/m2
03:06 45.7 °F 43.5 °F 29.95 in SW 10.0 mph 14.0 mph 92 % 0.01 in 0 W/m2
03:11 45.3 °F 43.4 °F 29.95 in SW 9.0 mph 11.0 mph 93 % 0.01 in 0 W/m2
03:16 45.3 °F 43.4 °F 29.94 in SSW 9.0 mph 14.0 mph 93 % 0.01 in 0 W/m2
03:21 45.3 °F 43.4 °F 29.94 in SSW 8.0 mph 11.0 mph 93 % 0.01 in 0 W/m2
03:26 45.3 °F 43.4 °F 29.93 in SSW 10.0 mph 16.0 mph 93 % 0.01 in 0 W/m2
03:31 45.5 °F 43.6 °F 29.93 in SSW 8.0 mph 13.0 mph 93 % 0.00 in 0 W/m2
03:41 45.3 °F 43.4 °F 29.93 in SW 7.0 mph 10.0 mph 93 % 0.00 in 0 W/m2
03:51 45.5 °F 43.6 °F 29.92 in SSW 5.0 mph 7.0 mph 93 % 0.00 in 0 W/m2
03:56 45.5 °F 43.6 °F 29.92 in SSW 2.0 mph 8.0 mph 93 % 0.00 in 0 W/m2
04:01 45.5 °F 43.6 °F 29.91 in SSW 5.0 mph 7.0 mph 93 % 0.00 in 0 W/m2
04:06 45.5 °F 43.6 °F 29.92 in SSW 5.0 mph 7.0 mph 93 % 0.00 in 0 W/m2
04:11 45.7 °F 44.1 °F 29.91 in SSW 4.0 mph 6.0 mph 94 % 0.00 in 0 W/m2
04:16 45.7 °F 44.1 °F 29.91 in SSW 1.0 mph 3.0 mph 94 % 0.00 in 0 W/m2
04:26 45.9 °F 44.2 °F 29.90 in SSW 4.0 mph 9.0 mph 94 % 0.00 in 0 W/m2
04:36 46.2 °F 44.6 °F 29.90 in SW 4.0 mph 10.0 mph 94 % 0.00 in 0 W/m2
04:41 46.4 °F 44.8 °F 29.89 in South 4.0 mph 8.0 mph 94 % 0.00 in 0 W/m2
04:46 46.6 °F 44.9 °F 29.89 in SSW 2.0 mph 6.0 mph 94 % 0.00 in 0 W/m2
04:51 46.6 °F 44.9 °F 29.89 in South 6.0 mph 10.0 mph 94 % 0.00 in 0 W/m2
04:56 46.8 °F 45.1 °F 29.89 in SSW 6.0 mph 9.0 mph 94 % 0.00 in 0 W/m2
05:06 46.8 °F 45.1 °F 29.88 in South 4.0 mph 7.0 mph 94 % 0.00 in 0 W/m2
05:11 46.8 °F 45.1 °F 29.88 in South 4.0 mph 7.0 mph 94 % 0.00 in 0 W/m2
05:16 46.8 °F 45.1 °F 29.88 in SSW 4.0 mph 8.0 mph 94 % 0.00 in 0 W/m2
05:26 46.8 °F 45.1 °F 29.87 in South 5.0 mph 9.0 mph 94 % 0.00 in 0 W/m2
05:28 46.8 °F 45.1 °F 29.87 in South 5.0 mph 10.0 mph 94 % 0.00 in 0 W/m2
05:33 46.8 °F 45.4 °F 29.86 in SW 5.0 mph 10.0 mph 95 % 0.00 in 0 W/m2
05:38 46.9 °F 45.6 °F 29.86 in SSW 6.0 mph 9.0 mph 95 % 0.00 in 0 W/m2
05:58 47.7 °F 46.3 °F 29.85 in SSW 8.0 mph 11.0 mph 95 % 0.00 in 0 W/m2
06:03 47.8 °F 46.5 °F 29.85 in SW 4.0 mph 7.0 mph 95 % 0.00 in 0 W/m2
06:08 48.0 °F 46.7 °F 29.84 in SW 5.0 mph 8.0 mph 95 % 0.00 in 0 W/m2
06:18 48.4 °F 47.0 °F 29.84 in SSW 6.0 mph 10.0 mph 95 % 0.00 in 0 W/m2
06:28 48.7 °F 47.1 °F 29.83 in SW 6.0 mph 11.0 mph 94 % 0.00 in 0 W/m2
06:38 49.3 °F 47.6 °F 29.83 in SW 8.0 mph 12.0 mph 94 % 0.00 in 0 W/m2
06:43 49.5 °F 47.8 °F 29.83 in SW 7.0 mph 11.0 mph 94 % 0.00 in 0 W/m2
06:48 49.5 °F 47.8 °F 29.83 in SW 7.0 mph 11.0 mph 94 % 0.00 in 0 W/m2
06:53 49.6 °F 48.0 °F 29.83 in WSW 9.0 mph 14.0 mph 94 % 0.00 in 0 W/m2
06:58 49.8 °F 48.2 °F 29.83 in SW 7.0 mph 13.0 mph 94 % 0.00 in 0 W/m2
07:03 50.0 °F 48.3 °F 29.83 in WSW 8.0 mph 12.0 mph 94 % 0.00 in 0 W/m2
07:08 50.2 °F 48.5 °F 29.83 in WSW 7.0 mph 10.0 mph 94 % 0.00 in 0 W/m2
07:13 50.2 °F 48.5 °F 29.83 in WSW 6.0 mph 8.0 mph 94 % 0.00 in 0 W/m2
07:18 50.2 °F 48.5 °F 29.82 in WSW 8.0 mph 11.0 mph 94 % 0.00 in 0 W/m2
07:23 50.2 °F 48.5 °F 29.82 in SW 7.0 mph 10.0 mph 94 % 0.00 in 0 W/m2
07:28 50.4 °F 48.7 °F 29.82 in SW 6.0 mph 10.0 mph 94 % 0.00 in 0 W/m2
07:33 50.4 °F 48.7 °F 29.82 in SW 7.0 mph 10.0 mph 94 % 0.00 in 0 W/m2
07:38 50.5 °F 48.9 °F 29.82 in SW 5.0 mph 8.0 mph 94 % 0.00 in 0 W/m2
07:43 50.5 °F 48.9 °F 29.82 in SW 7.0 mph 12.0 mph 94 % 0.00 in 0 W/m2
07:53 50.7 °F 49.1 °F 29.82 in SW 4.0 mph 8.0 mph 94 % 0.00 in 0 W/m2
07:58 50.7 °F 49.1 °F 29.82 in SW 4.0 mph 7.0 mph 94 % 0.00 in 0 W/m2
08:03 50.7 °F 49.1 °F 29.82 in SW 5.0 mph 7.0 mph 94 % 0.00 in 0 W/m2
08:08 50.7 °F 49.1 °F 29.82 in SSW 6.0 mph 8.0 mph 94 % 0.00 in 0 W/m2
08:13 50.7 °F 49.1 °F 29.82 in SW 6.0 mph 9.0 mph 94 % 0.00 in 5 W/m2
08:23 50.5 °F 48.9 °F 29.82 in SSW 5.0 mph 9.0 mph 94 % 0.00 in 5 W/m2
08:28 50.7 °F 49.3 °F 29.82 in SSW 3.0 mph 6.0 mph 95 % 0.00 in 7 W/m2
08:33 50.9 °F 49.5 °F 29.81 in SW 5.0 mph 9.0 mph 95 % 0.00 in 7 W/m2
08:38 51.3 °F 49.9 °F 29.81 in SW 4.0 mph 8.0 mph 95 % 0.00 in 9 W/m2
08:46 51.8 °F 50.4 °F 29.81 in SW 7.0 mph 12.0 mph 95 % 0.00 in 7 W/m2
08:51 52.2 °F 50.8 °F 29.81 in WSW 8.0 mph 15.0 mph 95 % 0.00 in 7 W/m2
08:56 52.3 °F 50.7 °F 29.81 in WSW 8.0 mph 11.0 mph 94 % 0.00 in 9 W/m2
09:01 52.5 °F 50.8 °F 29.81 in WSW 9.0 mph 13.0 mph 94 % 0.00 in 11 W/m2
09:06 52.5 °F 50.8 °F 29.81 in WSW 7.0 mph 10.0 mph 94 % 0.00 in 11 W/m2
09:11 52.7 °F 50.7 °F 29.81 in WSW 6.0 mph 10.0 mph 93 % 0.00 in 12 W/m2
09:16 52.9 °F 50.9 °F 29.81 in WSW 8.0 mph 11.0 mph 93 % 0.00 in 21 W/m2
09:21 52.9 °F 50.9 °F 29.81 in WSW 9.0 mph 14.0 mph 93 % 0.00 in 26 W/m2
09:31 53.2 °F 51.3 °F 29.81 in WSW 8.0 mph 13.0 mph 93 % 0.00 in 32 W/m2
09:36 53.2 °F 51.3 °F 29.81 in WSW 7.0 mph 14.0 mph 93 % 0.00 in 26 W/m2
09:46 53.4 °F 51.2 °F 29.81 in West 7.0 mph 13.0 mph 92 % 0.00 in 16 W/m2
10:06 53.8 °F 51.2 °F 29.81 in WSW 8.0 mph 13.0 mph 91 % 0.00 in 70 W/m2
10:11 54.0 °F 51.4 °F 29.81 in West 7.0 mph 9.0 mph 91 % 0.00 in 25 W/m2
10:16 54.0 °F 51.4 °F 29.81 in West 9.0 mph 13.0 mph 91 % 0.00 in 28 W/m2
10:21 54.0 °F 51.4 °F 29.81 in West 7.0 mph 11.0 mph 91 % 0.00 in 35 W/m2
10:31 54.1 °F 51.6 °F 29.81 in WSW 7.0 mph 12.0 mph 91 % 0.00 in 40 W/m2
10:36 54.1 °F 51.6 °F 29.81 in WSW 8.0 mph 12.0 mph 91 % 0.00 in 28 W/m2
10:41 54.1 °F 51.6 °F 29.81 in West 7.0 mph 14.0 mph 91 % 0.00 in 18 W/m2
10:46 54.1 °F 51.6 °F 29.81 in West 6.0 mph 10.0 mph 91 % 0.00 in 19 W/m2
11:01 54.3 °F 51.7 °F 29.80 in West 11.0 mph 20.0 mph 91 % 0.00 in 54 W/m2
11:06 54.5 °F 51.6 °F 29.80 in West 10.0 mph 16.0 mph 90 % 0.00 in 47 W/m2
11:11 54.7 °F 51.8 °F 29.80 in West 9.0 mph 16.0 mph 90 % 0.00 in 42 W/m2
11:17 54.7 °F 51.8 °F 29.79 in West 10.0 mph 14.0 mph 90 % 0.00 in 30 W/m2
11:22 54.7 °F 52.1 °F 29.79 in WSW 8.0 mph 14.0 mph 91 % 0.00 in 33 W/m2
11:27 54.7 °F 52.1 °F 29.79 in West 12.0 mph 22.0 mph 91 % 0.00 in 37 W/m2
11:37 54.7 °F 52.1 °F 29.79 in West 9.0 mph 20.0 mph 91 % 0.00 in 49 W/m2
11:42 54.7 °F 52.1 °F 29.78 in West 12.0 mph 19.0 mph 91 % 0.00 in 40 W/m2
11:47 54.7 °F 52.1 °F 29.78 in WSW 9.0 mph 15.0 mph 91 % 0.00 in 76 W/m2
11:53 54.7 °F 52.1 °F 29.78 in WSW 8.0 mph 14.0 mph 91 % 0.00 in 47 W/m2
11:58 54.7 °F 52.1 °F 29.78 in West 7.0 mph 11.0 mph 91 % 0.00 in 47 W/m2
12:03 54.7 °F 52.1 °F 29.77 in West 9.0 mph 20.0 mph 91 % 0.00 in 70 W/m2
12:08 54.7 °F 52.1 °F 29.77 in West 12.0 mph 16.0 mph 91 % 0.00 in 84 W/m2
12:18 54.9 °F 52.0 °F 29.77 in West 10.0 mph 15.0 mph 90 % 0.00 in 33 W/m2
12:23 54.9 °F 52.0 °F 29.77 in West 10.0 mph 15.0 mph 90 % 0.00 in 33 W/m2
12:28 54.9 °F 52.0 °F 29.77 in WNW 11.0 mph 20.0 mph 90 % 0.00 in 33 W/m2
12:33 54.9 °F 51.7 °F 29.77 in West 14.0 mph 21.0 mph 89 % 0.00 in 44 W/m2
12:43 55.0 °F 51.5 °F 29.76 in WNW 13.0 mph 26.0 mph 88 % 0.00 in 111 W/m2
12:53 55.4 °F 51.9 °F 29.77 in West 12.0 mph 21.0 mph 88 % 0.00 in 132 W/m2
12:58 55.8 °F 52.3 °F 29.76 in West 15.0 mph 26.0 mph 88 % 0.00 in 276 W/m2
13:08 56.5 °F 52.7 °F 29.76 in West 14.0 mph 23.0 mph 87 % 0.00 in 343 W/m2
13:23 57.4 °F 52.9 °F 29.77 in West 20.0 mph 27.0 mph 85 % 0.00 in 207 W/m2
13:28 57.2 °F 52.4 °F 29.77 in West 16.0 mph 25.0 mph 84 % 0.00 in 149 W/m2
13:33 57.0 °F 52.2 °F 29.77 in West 13.0 mph 21.0 mph 84 % 0.00 in 158 W/m2
13:38 57.2 °F 52.4 °F 29.77 in West 12.0 mph 23.0 mph 84 % 0.00 in 225 W/m2
13:43 57.2 °F 52.1 °F 29.77 in West 18.0 mph 27.0 mph 83 % 0.00 in 287 W/m2
13:48 57.4 °F 52.3 °F 29.77 in West 13.0 mph 24.0 mph 83 % 0.00 in 141 W/m2
13:53 57.2 °F 51.8 °F 29.77 in West 15.0 mph 23.0 mph 82 % 0.00 in 98 W/m2
13:58 56.8 °F 51.7 °F 29.77 in West 11.0 mph 18.0 mph 83 % 0.00 in 156 W/m2
14:18 56.5 °F 52.0 °F 29.78 in West 11.0 mph 20.0 mph 85 % 0.00 in 54 W/m2
14:23 56.1 °F 51.7 °F 29.78 in West 12.0 mph 22.0 mph 85 % 0.00 in 60 W/m2
14:24 56.1 °F 51.7 °F 29.78 in West 11.0 mph 22.0 mph 85 % 0.00 in 53 W/m2
14:39 55.8 °F 51.6 °F 29.78 in West 10.0 mph 19.0 mph 86 % 0.00 in 26 W/m2
14:44 55.6 °F 51.5 °F 29.78 in West 11.0 mph 19.0 mph 86 % 0.00 in 16 W/m2
14:49 55.6 °F 51.5 °F 29.77 in West 13.0 mph 19.0 mph 86 % 0.00 in 19 W/m2
14:53 55.4 °F 51.3 °F 29.77 in West 10.0 mph 21.0 mph 86 % 0.00 in 21 W/m2
14:58 55.2 °F 51.1 °F 29.77 in West 13.0 mph 21.0 mph 86 % 0.00 in 21 W/m2
15:03 55.0 °F 51.2 °F 29.77 in West 12.0 mph 19.0 mph 87 % 0.00 in 46 W/m2
15:08 55.0 °F 51.2 °F 29.77 in West 10.0 mph 18.0 mph 87 % 0.00 in 25 W/m2
15:13 55.0 °F 51.2 °F 29.77 in West 8.0 mph 15.0 mph 87 % 0.00 in 25 W/m2
15:18 54.9 °F 51.1 °F 29.78 in WNW 12.0 mph 20.0 mph 87 % 0.00 in 32 W/m2
15:23 54.9 °F 51.1 °F 29.78 in WNW 10.0 mph 21.0 mph 87 % 0.00 in 28 W/m2
15:33 54.7 °F 50.9 °F 29.78 in WNW 10.0 mph 18.0 mph 87 % 0.00 in 12 W/m2
15:38 54.7 °F 50.9 °F 29.78 in WNW 12.0 mph 21.0 mph 87 % 0.00 in 11 W/m2
15:43 54.7 °F 50.9 °F 29.78 in WNW 13.0 mph 18.0 mph 87 % 0.00 in 9 W/m2
15:48 54.5 °F 50.7 °F 29.78 in WNW 7.0 mph 10.0 mph 87 % 0.00 in 7 W/m2
15:53 54.3 °F 50.8 °F 29.78 in WNW 9.0 mph 15.0 mph 88 % 0.00 in 5 W/m2
15:58 54.3 °F 50.8 °F 29.78 in WNW 11.0 mph 18.0 mph 88 % 0.00 in 0 W/m2
16:03 54.3 °F 50.8 °F 29.78 in WNW 10.0 mph 16.0 mph 88 % 0.00 in 0 W/m2
16:08 54.1 °F 50.7 °F 29.78 in WNW 10.0 mph 16.0 mph 88 % 0.00 in 0 W/m2
16:18 54.0 °F 50.5 °F 29.78 in WNW 13.0 mph 19.0 mph 88 % 0.00 in 0 W/m2
16:28 53.8 °F 50.3 °F 29.78 in WNW 9.0 mph 15.0 mph 88 % 0.00 in 0 W/m2
16:38 53.6 °F 50.1 °F 29.79 in WNW 10.0 mph 20.0 mph 88 % 0.00 in 0 W/m2
16:43 53.4 °F 50.0 °F 29.79 in WNW 11.0 mph 15.0 mph 88 % 0.00 in 0 W/m2
16:53 53.2 °F 50.1 °F 29.79 in WNW 10.0 mph 15.0 mph 89 % 0.00 in 0 W/m2
16:58 53.2 °F 50.1 °F 29.79 in WNW 7.0 mph 15.0 mph 89 % 0.00 in 0 W/m2
17:03 53.2 °F 50.1 °F 29.79 in West 6.0 mph 10.0 mph 89 % 0.00 in 0 W/m2
17:13 53.1 °F 50.2 °F 29.79 in WNW 10.0 mph 16.0 mph 90 % 0.00 in 0 W/m2
17:18 53.2 °F 50.4 °F 29.79 in WNW 9.0 mph 16.0 mph 90 % 0.00 in 0 W/m2
17:23 53.2 °F 50.4 °F 29.80 in WNW 8.0 mph 12.0 mph 90 % 0.00 in 0 W/m2
17:28 53.4 °F 50.6 °F 29.80 in WNW 7.0 mph 13.0 mph 90 % 0.00 in 0 W/m2
17:43 53.2 °F 50.4 °F 29.80 in West 8.0 mph 12.0 mph 90 % 0.00 in 0 W/m2
17:48 53.4 °F 50.6 °F 29.80 in West 6.0 mph 12.0 mph 90 % 0.00 in 0 W/m2
17:53 53.4 °F 50.6 °F 29.80 in WNW 6.0 mph 10.0 mph 90 % 0.00 in 0 W/m2
18:03 53.4 °F 50.3 °F 29.80 in WNW 9.0 mph 13.0 mph 89 % 0.00 in 0 W/m2
18:13 53.8 °F 50.6 °F 29.80 in WNW 8.0 mph 13.0 mph 89 % 0.00 in 0 W/m2
18:24 53.6 °F 50.7 °F 29.81 in WNW 9.0 mph 15.0 mph 90 % 0.00 in 0 W/m2
18:28 53.6 °F 50.7 °F 29.81 in West 7.0 mph 10.0 mph 90 % 0.00 in 0 W/m2
18:33 53.6 °F 50.7 °F 29.81 in West 6.0 mph 10.0 mph 90 % 0.00 in 0 W/m2
18:38 53.6 °F 50.7 °F 29.81 in WNW 6.0 mph 10.0 mph 90 % 0.00 in 0 W/m2
18:43 53.6 °F 50.7 °F 29.81 in WNW 6.0 mph 9.0 mph 90 % 0.00 in 0 W/m2
18:49 53.4 °F 50.6 °F 29.81 in West 4.0 mph 8.0 mph 90 % 0.00 in 0 W/m2
18:59 53.4 °F 50.6 °F 29.81 in West 1.0 mph 4.0 mph 90 % 0.00 in 0 W/m2
19:04 53.4 °F 50.6 °F 29.81 in WNW 5.0 mph 8.0 mph 90 % 0.00 in 0 W/m2
19:14 53.2 °F 50.4 °F 29.81 in West 7.0 mph 12.0 mph 90 % 0.00 in 0 W/m2
19:19 53.2 °F 50.4 °F 29.80 in West 8.0 mph 13.0 mph 90 % 0.00 in 0 W/m2
19:24 53.2 °F 50.4 °F 29.80 in West 6.0 mph 12.0 mph 90 % 0.00 in 0 W/m2
19:34 53.4 °F 50.6 °F 29.80 in West 5.0 mph 9.0 mph 90 % 0.00 in 0 W/m2
19:39 53.2 °F 50.4 °F 29.80 in West 5.0 mph 9.0 mph 90 % 0.00 in 0 W/m2
19:44 53.2 °F 50.4 °F 29.80 in West 3.0 mph 9.0 mph 90 % 0.00 in 0 W/m2
19:49 53.2 °F 50.1 °F 29.81 in West 4.0 mph 7.0 mph 89 % 0.00 in 0 W/m2
19:54 53.2 °F 50.1 °F 29.81 in WNW 4.0 mph 11.0 mph 89 % 0.00 in 0 W/m2
19:59 53.1 °F 49.9 °F 29.81 in West 7.0 mph 14.0 mph 89 % 0.00 in 0 W/m2
20:04 53.1 °F 49.9 °F 29.81 in West 7.0 mph 14.0 mph 89 % 0.00 in 0 W/m2
20:14 53.1 °F 49.9 °F 29.81 in West 7.0 mph 12.0 mph 89 % 0.00 in 0 W/m2
20:19 53.1 °F 49.9 °F 29.81 in WNW 6.0 mph 10.0 mph 89 % 0.00 in 0 W/m2
20:29 53.1 °F 49.9 °F 29.81 in WNW 7.0 mph 9.0 mph 89 % 0.00 in 0 W/m2
20:34 53.1 °F 49.9 °F 29.81 in WNW 8.0 mph 10.0 mph 89 % 0.00 in 0 W/m2
20:39 53.1 °F 49.9 °F 29.81 in WNW 9.0 mph 13.0 mph 89 % 0.00 in 0 W/m2
20:47 53.2 °F 50.1 °F 29.81 in WNW 8.0 mph 11.0 mph 89 % 0.00 in 0 W/m2
20:57 53.2 °F 50.1 °F 29.81 in WNW 5.0 mph 9.0 mph 89 % 0.00 in 0 W/m2
21:02 53.2 °F 50.1 °F 29.81 in WNW 5.0 mph 8.0 mph 89 % 0.00 in 0 W/m2
21:12 53.2 °F 50.1 °F 29.81 in WNW 7.0 mph 10.0 mph 89 % 0.00 in 0 W/m2
21:17 53.2 °F 50.1 °F 29.81 in WNW 5.0 mph 8.0 mph 89 % 0.00 in 0 W/m2
21:27 53.2 °F 50.1 °F 29.81 in WNW 4.0 mph 7.0 mph 89 % 0.00 in 0 W/m2
21:33 53.2 °F 50.1 °F 29.81 in WNW 4.0 mph 10.0 mph 89 % 0.00 in 0 W/m2
21:38 53.2 °F 50.1 °F 29.81 in West 5.0 mph 7.0 mph 89 % 0.00 in 0 W/m2
21:43 53.2 °F 50.1 °F 29.81 in West 3.0 mph 9.0 mph 89 % 0.00 in 0 W/m2
21:48 53.2 °F 50.1 °F 29.81 in WNW 6.0 mph 8.0 mph 89 % 0.00 in 0 W/m2
21:49 53.2 °F 50.1 °F 29.81 in WNW 6.0 mph 10.0 mph 89 % 0.00 in 0 W/m2
21:54 53.2 °F 50.1 °F 29.81 in West 7.0 mph 11.0 mph 89 % 0.00 in 0 W/m2
21:59 53.4 °F 50.3 °F 29.81 in WSW 6.0 mph 8.0 mph 89 % 0.00 in 0 W/m2
22:04 53.2 °F 50.1 °F 29.81 in West 4.0 mph 7.0 mph 89 % 0.00 in 0 W/m2
22:09 53.2 °F 50.1 °F 29.80 in WSW 3.0 mph 7.0 mph 89 % 0.00 in 0 W/m2
22:14 53.2 °F 50.1 °F 29.81 in West 4.0 mph 7.0 mph 89 % 0.00 in 0 W/m2
22:19 53.2 °F 50.1 °F 29.80 in West 3.0 mph 8.0 mph 89 % 0.00 in 0 W/m2
22:24 53.2 °F 50.1 °F 29.80 in West 2.0 mph 7.0 mph 89 % 0.00 in 0 W/m2
22:29 53.2 °F 50.1 °F 29.80 in West 4.0 mph 8.0 mph 89 % 0.00 in 0 W/m2
22:34 53.2 °F 50.4 °F 29.80 in West 8.0 mph 13.0 mph 90 % 0.00 in 0 W/m2
22:39 53.2 °F 50.4 °F 29.80 in West 6.0 mph 9.0 mph 90 % 0.00 in 0 W/m2
22:54 53.2 °F 50.1 °F 29.79 in WNW 4.0 mph 7.0 mph 89 % 0.00 in 0 W/m2
22:55 53.2 °F 50.1 °F 29.79 in WNW 5.0 mph 7.0 mph 89 % 0.00 in 0 W/m2
23:00 53.2 °F 50.1 °F 29.80 in West 5.0 mph 7.0 mph 89 % 0.00 in 0 W/m2
23:05 53.2 °F 50.1 °F 29.80 in WNW 2.0 mph 6.0 mph 89 % 0.00 in 0 W/m2
23:10 53.2 °F 50.4 °F 29.80 in WNW 5.0 mph 9.0 mph 90 % 0.00 in 0 W/m2
23:15 53.1 °F 50.2 °F 29.80 in WNW 7.0 mph 11.0 mph 90 % 0.00 in 0 W/m2
23:25 53.1 °F 50.2 °F 29.80 in West 7.0 mph 12.0 mph 90 % 0.00 in 0 W/m2
23:30 53.1 °F 50.2 °F 29.80 in West 5.0 mph 9.0 mph 90 % 0.00 in 0 W/m2
23:44 53.1 °F 50.2 °F 29.80 in West 4.0 mph 7.0 mph 90 % 0.00 in 0 W/m2
23:49 53.1 °F 50.2 °F 29.80 in West 4.0 mph 9.0 mph 90 % 0.00 in 0 W/m2
23:54 53.1 °F 50.2 °F 29.80 in WSW 5.0 mph 7.0 mph 90 % 0.00 in 0 W/m2
Delerius-Weather
Compliments of Weather Underground - 2 mb

Data updates at regular intervals.